»·PEaware :: N73335 KLAX-KSNA

N73335 :: KLAX-KSNA

FLIGHT INFORMATION

Flight Status: Arrived
Operator: Privately registered:
United States
More flights under this callsign
Pilot: Keith L. (34129)
Aircraft: CESSNA 182 SKYLANE
(C182)
More flights by this aircraft type
Origin: KLAX Los Angeles Intl
United States
Destination: KSNA John Wayne-Orange Co
United States
More flights between these airports :: More routes between these airports
Route: SLI8 SLI
File this flight plan on PilotEdge
Remarks:
Altitude:
(Current/Filed)
4,000ft
Speed:
(Current/Filed)
120kts
Departed: 01-Oct-22 09:41 AM
Arrived: 01-Oct-22 10:14 AM
Distance/Time
Traveled:
31nm/0:33
Distance/Time
To Go:
Arrived

Flight Plot

Page will automatically refresh every two minutes.

Flight plan parsing failed; only flown route is shown


Map Options




Map Legend


Flown Route
Filed Route
Departure Airport
Arrival Airport
Navaid (VOR, NDB)
Fix

Horizontal Profiles

Position Reports

Time Latitude Longitude Heading Altitude Ground
Speed
01-Oct-22 09:23 33.946830 -118.410353 188 120ft 0kts
01-Oct-22 09:24 33.946830 -118.410353 188 120ft 0kts
01-Oct-22 09:25 33.946857 -118.410348 188 120ft 2kts
01-Oct-22 09:26 33.947087 -118.410305 188 120ft 0kts
01-Oct-22 09:27 33.947087 -118.410305 188 120ft 0kts
01-Oct-22 09:28 33.947087 -118.410306 188 120ft 0kts
01-Oct-22 09:29 33.947087 -118.410305 188 120ft 0kts
01-Oct-22 09:30 33.947087 -118.410306 188 120ft 0kts
01-Oct-22 09:31 33.947087 -118.410306 188 120ft 0kts
01-Oct-22 09:32 33.947087 -118.410306 188 120ft 0kts
01-Oct-22 09:33 33.947087 -118.410305 188 120ft 0kts
01-Oct-22 09:34 33.947645 -118.409281 45 117ft 5kts
01-Oct-22 09:35 33.948160 -118.408790 33 119ft 6kts
01-Oct-22 09:36 33.948630 -118.406443 83 118ft 10kts
01-Oct-22 09:37 33.949083 -118.402414 83 119ft 12kts
01-Oct-22 09:38 33.949471 -118.399302 43 119ft 0kts
01-Oct-22 09:39 33.949471 -118.399302 43 119ft 0kts
01-Oct-22 09:40 33.950129 -118.405868 264 263ft 64kts
01-Oct-22 09:41 33.946259 -118.442690 260 1313ft 126kts
01-Oct-22 09:42 33.932685 -118.477791 200 2844ft 113kts
01-Oct-22 09:43 33.896988 -118.476302 163 3614ft 130kts
01-Oct-22 09:44 33.865537 -118.449923 141 4052ft 145kts
01-Oct-22 09:45 33.833127 -118.420778 139 4063ft 154kts
01-Oct-22 09:46 33.800804 -118.388597 140 3891ft 149kts
01-Oct-22 09:47 33.771785 -118.361422 145 4164ft 125kts
01-Oct-22 09:48 33.755523 -118.323256 101 4064ft 132kts
01-Oct-22 09:49 33.749992 -118.278521 99 4058ft 135kts
01-Oct-22 09:50 33.744238 -118.233405 99 3990ft 136kts
01-Oct-22 09:51 33.738939 -118.189107 99 4094ft 137kts
01-Oct-22 09:52 33.732765 -118.143570 101 4046ft 143kts
01-Oct-22 09:53 33.726701 -118.097758 100 3936ft 137kts
01-Oct-22 09:54 33.720766 -118.053467 99 3941ft 131kts
01-Oct-22 09:55 33.715307 -118.009962 100 3986ft 132kts
01-Oct-22 09:56 33.729878 -117.973701 31 4061ft 138kts
01-Oct-22 09:57 33.765216 -117.950469 31 3997ft 144kts
01-Oct-22 09:58 33.800109 -117.927692 31 3936ft 142kts
01-Oct-22 09:59 33.834598 -117.905733 29 3973ft 141kts
01-Oct-22 10:01 33.869463 -117.883262 30 4030ft 143kts
01-Oct-22 10:02 33.904040 -117.859818 30 4001ft 141kts
01-Oct-22 10:03 33.928125 -117.827177 93 3939ft 137kts
01-Oct-22 10:04 33.927718 -117.782061 91 4030ft 139kts
01-Oct-22 10:05 33.906224 -117.751227 180 3982ft 134kts
01-Oct-22 10:06 33.869642 -117.757939 185 3537ft 129kts
01-Oct-22 10:07 33.834433 -117.769712 209 3021ft 133kts
01-Oct-22 10:08 33.802320 -117.789174 207 2695ft 128kts
01-Oct-22 10:09 33.771898 -117.808931 204 2480ft 128kts
01-Oct-22 10:10 33.742639 -117.825952 209 1958ft 102kts
01-Oct-22 10:11 33.720826 -117.840501 208 1316ft 79kts
01-Oct-22 10:12 33.701026 -117.852973 207 597ft 81kts
01-Oct-22 10:13 33.682152 -117.864786 207 87ft 64kts
01-Oct-22 10:14 33.678104 -117.868388 296 46ft 0kts
01-Oct-22 10:15 33.677545 -117.869189 205 45ft 15kts
01-Oct-22 10:16 33.676222 -117.871009 45 45ft 0kts
01-Oct-22 10:17 33.676222 -117.871009 45 45ft 0kts
01-Oct-22 10:18 33.676222 -117.871009 45 45ft 0kts
01-Oct-22 10:19 33.676222 -117.871009 45 45ft 0kts
01-Oct-22 10:20 33.676222 -117.871009 45 45ft 0kts
01-Oct-22 10:21 33.676222 -117.871009 45 45ft 0kts
01-Oct-22 10:22 33.676222 -117.871009 45 45ft 0kts
01-Oct-22 10:23 33.676222 -117.871009 45 45ft 0kts
01-Oct-22 10:24 33.676222 -117.871009 45 45ft 0kts
01-Oct-22 10:24 33.676222 -117.871009 45 45ft 0kts
01-Oct-22 10:25 33.676222 -117.871009 45 45ft 0kts
01-Oct-22 10:27 33.676222 -117.871009 45 45ft 0kts
01-Oct-22 10:28 33.676222 -117.871009 45 45ft 0kts

Navigation Log

Ident Type
Flight plan parsing failed, navigation log unavailable